sensor_id;sensor_type;location;lat;lon;timestamp;temperature;humidity
13375;DHT22;6756;51.354;15.754;2023-06-14T00:01:10;6.00;99.90
13375;DHT22;6756;51.354;15.754;2023-06-14T00:05:14;6.10;99.90
13375;DHT22;6756;51.354;15.754;2023-06-14T00:09:14;6.10;1.00
13375;DHT22;6756;51.354;15.754;2023-06-14T00:13:18;6.00;99.90
13375;DHT22;6756;51.354;15.754;2023-06-14T00:17:19;5.90;99.90
13375;DHT22;6756;51.354;15.754;2023-06-14T00:21:20;5.80;1.00
13375;DHT22;6756;51.354;15.754;2023-06-14T00:25:22;5.70;99.90
13375;DHT22;6756;51.354;15.754;2023-06-14T00:29:24;5.70;1.00
13375;DHT22;6756;51.354;15.754;2023-06-14T00:33:28;5.70;99.90
13375;DHT22;6756;51.354;15.754;2023-06-14T00:37:29;5.60;1.00
13375;DHT22;6756;51.354;15.754;2023-06-14T00:41:30;5.60;68.70
13375;DHT22;6756;51.354;15.754;2023-06-14T00:45:31;5.70;1.00
13375;DHT22;6756;51.354;15.754;2023-06-14T00:49:36;5.70;99.90
13375;DHT22;6756;51.354;15.754;2023-06-14T00:53:37;5.60;38.40
13375;DHT22;6756;51.354;15.754;2023-06-14T00:57:40;5.60;99.90
13375;DHT22;6756;51.354;15.754;2023-06-14T01:01:42;5.50;99.90
13375;DHT22;6756;51.354;15.754;2023-06-14T01:05:43;5.50;1.00
13375;DHT22;6756;51.354;15.754;2023-06-14T01:10:14;5.40;99.90
13375;DHT22;6756;51.354;15.754;2023-06-14T01:14:18;5.40;99.90
13375;DHT22;6756;51.354;15.754;2023-06-14T01:18:23;5.40;99.90
13375;DHT22;6756;51.354;15.754;2023-06-14T01:22:26;5.40;99.90
13375;DHT22;6756;51.354;15.754;2023-06-14T01:26:28;5.50;99.90
13375;DHT22;6756;51.354;15.754;2023-06-14T01:30:30;5.40;99.90
13375;DHT22;6756;51.354;15.754;2023-06-14T01:34:31;5.30;1.00
13375;DHT22;6756;51.354;15.754;2023-06-14T01:38:33;5.20;1.00
13375;DHT22;6756;51.354;15.754;2023-06-14T01:42:38;5.10;1.00
13375;DHT22;6756;51.354;15.754;2023-06-14T01:46:40;5.10;99.90
13375;DHT22;6756;51.354;15.754;2023-06-14T01:50:42;5.10;99.90
13375;DHT22;6756;51.354;15.754;2023-06-14T01:54:43;5.10;1.00
13375;DHT22;6756;51.354;15.754;2023-06-14T01:58:44;5.00;1.00
13375;DHT22;6756;51.354;15.754;2023-06-14T02:02:45;4.90;99.90
13375;DHT22;6756;51.354;15.754;2023-06-14T02:06:46;4.90;99.90
13375;DHT22;6756;51.354;15.754;2023-06-14T02:10:47;4.90;1.00
13375;DHT22;6756;51.354;15.754;2023-06-14T02:14:48;4.80;99.90
13375;DHT22;6756;51.354;15.754;2023-06-14T02:18:49;4.70;99.90
13375;DHT22;6756;51.354;15.754;2023-06-14T02:22:51;4.70;99.90
13375;DHT22;6756;51.354;15.754;2023-06-14T02:26:52;4.70;1.00
13375;DHT22;6756;51.354;15.754;2023-06-14T02:30:53;4.70;1.00
13375;DHT22;6756;51.354;15.754;2023-06-14T02:34:54;4.60;1.00
13375;DHT22;6756;51.354;15.754;2023-06-14T02:38:58;4.60;1.00
13375;DHT22;6756;51.354;15.754;2023-06-14T02:42:58;4.50;1.00
13375;DHT22;6756;51.354;15.754;2023-06-14T02:47:00;4.50;1.00
13375;DHT22;6756;51.354;15.754;2023-06-14T02:51:01;4.50;99.90
13375;DHT22;6756;51.354;15.754;2023-06-14T02:55:02;4.60;99.90
13375;DHT22;6756;51.354;15.754;2023-06-14T02:59:03;4.60;99.90
13375;DHT22;6756;51.354;15.754;2023-06-14T03:03:04;4.60;99.90
13375;DHT22;6756;51.354;15.754;2023-06-14T03:07:05;4.80;99.90
13375;DHT22;6756;51.354;15.754;2023-06-14T03:11:09;4.90;99.90
13375;DHT22;6756;51.354;15.754;2023-06-14T03:15:10;5.10;99.90
13375;DHT22;6756;51.354;15.754;2023-06-14T03:19:16;5.20;99.90
13375;DHT22;6756;51.354;15.754;2023-06-14T03:23:17;5.30;99.90
13375;DHT22;6756;51.354;15.754;2023-06-14T03:27:21;5.50;99.90
13375;DHT22;6756;51.354;15.754;2023-06-14T03:31:22;5.80;99.90
13375;DHT22;6756;51.354;15.754;2023-06-14T03:35:24;6.10;99.90
13375;DHT22;6756;51.354;15.754;2023-06-14T03:39:25;6.40;99.90
13375;DHT22;6756;51.354;15.754;2023-06-14T03:43:26;6.60;99.90
13375;DHT22;6756;51.354;15.754;2023-06-14T03:47:27;6.70;99.90
13375;DHT22;6756;51.354;15.754;2023-06-14T03:51:28;6.90;99.90
13375;DHT22;6756;51.354;15.754;2023-06-14T03:55:29;7.00;1.00
13375;DHT22;6756;51.354;15.754;2023-06-14T03:59:34;7.10;8.50
13375;DHT22;6756;51.354;15.754;2023-06-14T04:03:35;7.20;1.00
13375;DHT22;6756;51.354;15.754;2023-06-14T04:07:36;7.40;99.90
13375;DHT22;6756;51.354;15.754;2023-06-14T04:11:45;7.60;99.90
13375;DHT22;6756;51.354;15.754;2023-06-14T04:15:49;7.80;99.90
13375;DHT22;6756;51.354;15.754;2023-06-14T04:19:50;9.40;99.90
13375;DHT22;6756;51.354;15.754;2023-06-14T04:23:52;11.60;99.90
13375;DHT22;6756;51.354;15.754;2023-06-14T04:27:53;13.20;99.90
13375;DHT22;6756;51.354;15.754;2023-06-14T04:31:55;13.20;1.00
13375;DHT22;6756;51.354;15.754;2023-06-14T04:35:59;12.30;1.00
13375;DHT22;6756;51.354;15.754;2023-06-14T04:40:00;11.70;1.00
13375;DHT22;6756;51.354;15.754;2023-06-14T04:44:01;11.30;1.00
13375;DHT22;6756;51.354;15.754;2023-06-14T04:48:02;11.30;1.00
13375;DHT22;6756;51.354;15.754;2023-06-14T04:52:04;11.50;1.00
13375;DHT22;6756;51.354;15.754;2023-06-14T04:56:05;11.90;1.00
13375;DHT22;6756;51.354;15.754;2023-06-14T05:00:09;12.10;1.00
13375;DHT22;6756;51.354;15.754;2023-06-14T05:04:12;12.00;1.00
13375;DHT22;6756;51.354;15.754;2023-06-14T05:08:13;11.60;1.00
13375;DHT22;6756;51.354;15.754;2023-06-14T05:12:14;11.50;26.10
13375;DHT22;6756;51.354;15.754;2023-06-14T05:16:18;11.60;29.80
13375;DHT22;6756;51.354;15.754;2023-06-14T05:20:23;11.70;33.00
13375;DHT22;6756;51.354;15.754;2023-06-14T05:24:25;11.90;40.70
13375;DHT22;6756;51.354;15.754;2023-06-14T05:28:26;12.10;36.10
13375;DHT22;6756;51.354;15.754;2023-06-14T05:32:27;12.30;20.00
13375;DHT22;6756;51.354;15.754;2023-06-14T05:36:28;12.30;21.50
13375;DHT22;6756;51.354;15.754;2023-06-14T05:40:29;12.40;24.40
13375;DHT22;6756;51.354;15.754;2023-06-14T05:44:32;12.70;23.10
13375;DHT22;6756;51.354;15.754;2023-06-14T05:48:33;12.80;13.00
13375;DHT22;6756;51.354;15.754;2023-06-14T05:52:35;13.10;1.00
13375;DHT22;6756;51.354;15.754;2023-06-14T05:56:37;13.30;1.00
13375;DHT22;6756;51.354;15.754;2023-06-14T06:00:38;13.60;1.00
13375;DHT22;6756;51.354;15.754;2023-06-14T06:04:39;14.00;1.00
13375;DHT22;6756;51.354;15.754;2023-06-14T06:08:40;14.30;1.00
13375;DHT22;6756;51.354;15.754;2023-06-14T06:12:47;14.60;1.00
13375;DHT22;6756;51.354;15.754;2023-06-14T06:16:49;14.70;1.00
13375;DHT22;6756;51.354;15.754;2023-06-14T06:20:50;14.90;1.00
13375;DHT22;6756;51.354;15.754;2023-06-14T06:24:51;15.20;1.00
13375;DHT22;6756;51.354;15.754;2023-06-14T06:28:52;15.70;1.00
13375;DHT22;6756;51.354;15.754;2023-06-14T06:32:53;15.80;1.00
13375;DHT22;6756;51.354;15.754;2023-06-14T06:36:56;15.90;1.00
13375;DHT22;6756;51.354;15.754;2023-06-14T06:40:57;16.20;1.00
13375;DHT22;6756;51.354;15.754;2023-06-14T06:44:58;16.20;1.00
13375;DHT22;6756;51.354;15.754;2023-06-14T06:48:59;15.90;1.00
13375;DHT22;6756;51.354;15.754;2023-06-14T06:53:01;16.20;1.00
13375;DHT22;6756;51.354;15.754;2023-06-14T06:57:02;16.40;1.00
13375;DHT22;6756;51.354;15.754;2023-06-14T07:01:03;16.80;1.00
13375;DHT22;6756;51.354;15.754;2023-06-14T07:05:04;17.30;1.00
13375;DHT22;6756;51.354;15.754;2023-06-14T07:09:08;17.00;1.00
13375;DHT22;6756;51.354;15.754;2023-06-14T07:13:13;16.60;1.00
13375;DHT22;6756;51.354;15.754;2023-06-14T07:17:14;16.30;1.00
13375;DHT22;6756;51.354;15.754;2023-06-14T07:21:15;16.10;1.00
13375;DHT22;6756;51.354;15.754;2023-06-14T07:25:19;16.70;1.00
13375;DHT22;6756;51.354;15.754;2023-06-14T07:29:20;17.20;1.00
13375;DHT22;6756;51.354;15.754;2023-06-14T07:33:22;17.30;1.00
13375;DHT22;6756;51.354;15.754;2023-06-14T07:37:22;17.60;1.00
13375;DHT22;6756;51.354;15.754;2023-06-14T07:41:26;17.80;1.00
13375;DHT22;6756;51.354;15.754;2023-06-14T07:45:27;17.80;1.00
13375;DHT22;6756;51.354;15.754;2023-06-14T07:49:28;17.80;1.00
13375;DHT22;6756;51.354;15.754;2023-06-14T07:53:29;18.20;1.00
13375;DHT22;6756;51.354;15.754;2023-06-14T07:57:34;17.70;1.00
13375;DHT22;6756;51.354;15.754;2023-06-14T08:01:35;17.30;1.00
13375;DHT22;6756;51.354;15.754;2023-06-14T08:05:36;17.60;1.00
13375;DHT22;6756;51.354;15.754;2023-06-14T08:09:37;18.30;1.00
13375;DHT22;6756;51.354;15.754;2023-06-14T08:13:38;18.10;1.00
13375;DHT22;6756;51.354;15.754;2023-06-14T08:17:39;18.50;1.00
13375;DHT22;6756;51.354;15.754;2023-06-14T08:21:41;19.00;1.00
13375;DHT22;6756;51.354;15.754;2023-06-14T08:25:41;19.40;1.00
13375;DHT22;6756;51.354;15.754;2023-06-14T08:29:42;19.90;1.00
13375;DHT22;6756;51.354;15.754;2023-06-14T08:33:44;19.90;1.00
13375;DHT22;6756;51.354;15.754;2023-06-14T08:37:46;20.20;1.00
13375;DHT22;6756;51.354;15.754;2023-06-14T08:41:47;20.80;1.00
13375;DHT22;6756;51.354;15.754;2023-06-14T08:45:56;21.30;1.00
13375;DHT22;6756;51.354;15.754;2023-06-14T08:49:58;21.60;1.00
13375;DHT22;6756;51.354;15.754;2023-06-14T08:54:00;21.10;1.00
13375;DHT22;6756;51.354;15.754;2023-06-14T08:58:05;21.20;1.00
13375;DHT22;6756;51.354;15.754;2023-06-14T09:02:06;20.80;1.00
13375;DHT22;6756;51.354;15.754;2023-06-14T09:06:08;21.20;1.00
13375;DHT22;6756;51.354;15.754;2023-06-14T09:10:15;21.50;1.00
13375;DHT22;6756;51.354;15.754;2023-06-14T09:14:18;21.50;1.00
13375;DHT22;6756;51.354;15.754;2023-06-14T09:18:19;21.60;1.00
13375;DHT22;6756;51.354;15.754;2023-06-14T09:22:22;21.20;1.00
13375;DHT22;6756;51.354;15.754;2023-06-14T09:26:31;21.10;1.00
13375;DHT22;6756;51.354;15.754;2023-06-14T09:30:36;21.40;1.00
13375;DHT22;6756;51.354;15.754;2023-06-14T09:34:40;21.00;1.00
13375;DHT22;6756;51.354;15.754;2023-06-14T09:38:41;21.00;1.00
13375;DHT22;6756;51.354;15.754;2023-06-14T09:42:42;20.50;1.00
13375;DHT22;6756;51.354;15.754;2023-06-14T09:46:48;20.40;1.00
13375;DHT22;6756;51.354;15.754;2023-06-14T09:50:50;20.10;1.00
13375;DHT22;6756;51.354;15.754;2023-06-14T09:54:53;20.50;1.00
13375;DHT22;6756;51.354;15.754;2023-06-14T09:58:59;21.10;1.00
13375;DHT22;6756;51.354;15.754;2023-06-14T10:03:16;21.10;1.00
13375;DHT22;6756;51.354;15.754;2023-06-14T10:07:19;21.40;1.00
13375;DHT22;6756;51.354;15.754;2023-06-14T10:11:21;21.60;1.00
13375;DHT22;6756;51.354;15.754;2023-06-14T10:15:52;22.20;1.00
13375;DHT22;6756;51.354;15.754;2023-06-14T10:24:20;22.00;99.90
13375;DHT22;6756;51.354;15.754;2023-06-14T10:28:26;21.50;99.90
13375;DHT22;6756;51.354;15.754;2023-06-14T10:32:27;21.80;99.90
13375;DHT22;6756;51.354;15.754;2023-06-14T10:36:29;21.30;99.90
13375;DHT22;6756;51.354;15.754;2023-06-14T10:40:36;21.50;99.90
13375;DHT22;6756;51.354;15.754;2023-06-14T10:44:51;21.50;99.90
13375;DHT22;6756;51.354;15.754;2023-06-14T10:48:57;22.20;99.90
13375;DHT22;6756;51.354;15.754;2023-06-14T10:52:59;22.50;99.90
13375;DHT22;6756;51.354;15.754;2023-06-14T10:57:01;21.80;99.90
13375;DHT22;6756;51.354;15.754;2023-06-14T11:01:02;21.30;99.90
13375;DHT22;6756;51.354;15.754;2023-06-14T11:05:04;21.70;99.90
13375;DHT22;6756;51.354;15.754;2023-06-14T11:09:20;22.40;99.90
13375;DHT22;6756;51.354;15.754;2023-06-14T11:13:26;23.10;99.90
13375;DHT22;6756;51.354;15.754;2023-06-14T11:17:27;23.60;99.90
13375;DHT22;6756;51.354;15.754;2023-06-14T11:21:28;23.60;99.90
13375;DHT22;6756;51.354;15.754;2023-06-14T11:25:32;23.20;99.90
13375;DHT22;6756;51.354;15.754;2023-06-14T11:29:33;22.80;99.90
13375;DHT22;6756;51.354;15.754;2023-06-14T11:33:34;22.50;99.90
13375;DHT22;6756;51.354;15.754;2023-06-14T11:37:45;22.20;99.90
13375;DHT22;6756;51.354;15.754;2023-06-14T11:41:48;22.10;99.90
13375;DHT22;6756;51.354;15.754;2023-06-14T11:45:49;22.20;99.90
13375;DHT22;6756;51.354;15.754;2023-06-14T11:49:50;22.20;99.90
13375;DHT22;6756;51.354;15.754;2023-06-14T11:53:51;22.30;99.90
13375;DHT22;6756;51.354;15.754;2023-06-14T11:57:56;22.30;99.90
13375;DHT22;6756;51.354;15.754;2023-06-14T12:01:57;22.10;99.90
13375;DHT22;6756;51.354;15.754;2023-06-14T12:06:05;21.80;99.90
13375;DHT22;6756;51.354;15.754;2023-06-14T12:10:08;21.80;99.90
13375;DHT22;6756;51.354;15.754;2023-06-14T12:14:11;22.00;99.90
13375;DHT22;6756;51.354;15.754;2023-06-14T12:18:12;22.30;99.90
13375;DHT22;6756;51.354;15.754;2023-06-14T12:22:13;22.20;99.90
13375;DHT22;6756;51.354;15.754;2023-06-14T12:26:16;22.30;99.90
13375;DHT22;6756;51.354;15.754;2023-06-14T12:30:17;21.80;99.90
13375;DHT22;6756;51.354;15.754;2023-06-14T12:34:18;21.90;99.90
13375;DHT22;6756;51.354;15.754;2023-06-14T12:38:22;21.70;99.90
13375;DHT22;6756;51.354;15.754;2023-06-14T12:42:23;21.70;99.90
13375;DHT22;6756;51.354;15.754;2023-06-14T12:46:30;22.00;99.90
13375;DHT22;6756;51.354;15.754;2023-06-14T12:50:32;22.20;99.90
13375;DHT22;6756;51.354;15.754;2023-06-14T12:54:34;22.00;99.90
13375;DHT22;6756;51.354;15.754;2023-06-14T12:58:35;21.60;99.90
13375;DHT22;6756;51.354;15.754;2023-06-14T13:02:36;20.90;1.00
13375;DHT22;6756;51.354;15.754;2023-06-14T13:06:37;20.40;1.00
13375;DHT22;6756;51.354;15.754;2023-06-14T13:10:38;19.90;1.00
13375;DHT22;6756;51.354;15.754;2023-06-14T13:14:40;18.90;1.00
13375;DHT22;6756;51.354;15.754;2023-06-14T13:18:47;18.00;1.00
13375;DHT22;6756;51.354;15.754;2023-06-14T13:22:48;17.50;1.00
13375;DHT22;6756;51.354;15.754;2023-06-14T13:26:50;17.40;30.10
13375;DHT22;6756;51.354;15.754;2023-06-14T13:30:51;17.70;39.80
13375;DHT22;6756;51.354;15.754;2023-06-14T13:34:51;17.90;1.00
13375;DHT22;6756;51.354;15.754;2023-06-14T13:38:52;18.20;1.00
13375;DHT22;6756;51.354;15.754;2023-06-14T13:42:58;18.20;1.00
13375;DHT22;6756;51.354;15.754;2023-06-14T13:47:00;18.20;1.00
13375;DHT22;6756;51.354;15.754;2023-06-14T13:51:04;18.40;1.00
13375;DHT22;6756;51.354;15.754;2023-06-14T13:55:08;18.90;1.00
13375;DHT22;6756;51.354;15.754;2023-06-14T13:59:09;19.50;1.00
13375;DHT22;6756;51.354;15.754;2023-06-14T14:03:11;20.00;1.00
13375;DHT22;6756;51.354;15.754;2023-06-14T14:07:12;20.40;1.00
13375;DHT22;6756;51.354;15.754;2023-06-14T14:11:13;20.70;1.00
13375;DHT22;6756;51.354;15.754;2023-06-14T14:15:14;21.20;1.00
13375;DHT22;6756;51.354;15.754;2023-06-14T14:19:16;21.30;1.00
13375;DHT22;6756;51.354;15.754;2023-06-14T14:23:17;21.10;1.00
13375;DHT22;6756;51.354;15.754;2023-06-14T14:27:18;21.00;1.00
13375;DHT22;6756;51.354;15.754;2023-06-14T14:31:19;20.70;1.00
13375;DHT22;6756;51.354;15.754;2023-06-14T14:35:20;20.60;1.00
13375;DHT22;6756;51.354;15.754;2023-06-14T14:39:21;20.50;1.00
13375;DHT22;6756;51.354;15.754;2023-06-14T14:43:31;20.70;1.00
13375;DHT22;6756;51.354;15.754;2023-06-14T14:47:32;21.20;1.00
13375;DHT22;6756;51.354;15.754;2023-06-14T14:51:33;21.70;1.00
13375;DHT22;6756;51.354;15.754;2023-06-14T14:55:34;22.10;1.00
13375;DHT22;6756;51.354;15.754;2023-06-14T14:59:37;22.30;1.00
13375;DHT22;6756;51.354;15.754;2023-06-14T15:03:38;22.70;1.00
13375;DHT22;6756;51.354;15.754;2023-06-14T15:07:39;22.80;1.00
13375;DHT22;6756;51.354;15.754;2023-06-14T15:11:41;22.60;1.00
13375;DHT22;6756;51.354;15.754;2023-06-14T15:15:44;22.40;1.00
13375;DHT22;6756;51.354;15.754;2023-06-14T15:19:48;22.50;99.90
13375;DHT22;6756;51.354;15.754;2023-06-14T15:23:49;22.60;99.90
13375;DHT22;6756;51.354;15.754;2023-06-14T15:27:50;22.60;99.90
13375;DHT22;6756;51.354;15.754;2023-06-14T15:31:51;22.50;99.90
13375;DHT22;6756;51.354;15.754;2023-06-14T15:35:55;22.40;99.90
13375;DHT22;6756;51.354;15.754;2023-06-14T15:39:56;22.30;99.90
13375;DHT22;6756;51.354;15.754;2023-06-14T15:43:57;22.20;99.90
13375;DHT22;6756;51.354;15.754;2023-06-14T15:47:58;22.10;99.90
13375;DHT22;6756;51.354;15.754;2023-06-14T15:52:00;22.10;99.90
13375;DHT22;6756;51.354;15.754;2023-06-14T15:56:01;21.90;99.90
13375;DHT22;6756;51.354;15.754;2023-06-14T16:00:06;21.80;99.90
13375;DHT22;6756;51.354;15.754;2023-06-14T16:04:10;21.70;99.90
13375;DHT22;6756;51.354;15.754;2023-06-14T16:08:11;21.60;99.90
13375;DHT22;6756;51.354;15.754;2023-06-14T16:12:12;21.40;99.90
13375;DHT22;6756;51.354;15.754;2023-06-14T16:16:14;21.30;99.90
13375;DHT22;6756;51.354;15.754;2023-06-14T16:20:16;21.50;99.90
13375;DHT22;6756;51.354;15.754;2023-06-14T16:24:18;21.70;99.90
13375;DHT22;6756;51.354;15.754;2023-06-14T16:28:19;21.90;99.90
13375;DHT22;6756;51.354;15.754;2023-06-14T16:32:20;22.20;99.90
13375;DHT22;6756;51.354;15.754;2023-06-14T16:36:22;22.20;99.90
13375;DHT22;6756;51.354;15.754;2023-06-14T16:40:23;22.10;99.90
13375;DHT22;6756;51.354;15.754;2023-06-14T16:44:24;22.00;99.90
13375;DHT22;6756;51.354;15.754;2023-06-14T16:48:28;21.80;99.90
13375;DHT22;6756;51.354;15.754;2023-06-14T16:52:29;21.50;99.90
13375;DHT22;6756;51.354;15.754;2023-06-14T16:56:30;21.10;99.90
13375;DHT22;6756;51.354;15.754;2023-06-14T17:00:31;20.70;99.90
13375;DHT22;6756;51.354;15.754;2023-06-14T17:04:33;20.40;99.90
13375;DHT22;6756;51.354;15.754;2023-06-14T17:08:34;20.20;99.90
13375;DHT22;6756;51.354;15.754;2023-06-14T17:12:34;20.10;1.00
13375;DHT22;6756;51.354;15.754;2023-06-14T17:16:35;20.00;1.00
13375;DHT22;6756;51.354;15.754;2023-06-14T17:20:36;19.80;1.00
13375;DHT22;6756;51.354;15.754;2023-06-14T17:24:38;19.60;1.00
13375;DHT22;6756;51.354;15.754;2023-06-14T17:28:39;19.50;1.00
13375;DHT22;6756;51.354;15.754;2023-06-14T17:32:40;19.40;1.00
13375;DHT22;6756;51.354;15.754;2023-06-14T17:36:41;19.30;1.00
13375;DHT22;6756;51.354;15.754;2023-06-14T17:40:44;19.30;1.00
13375;DHT22;6756;51.354;15.754;2023-06-14T17:44:45;19.20;1.00
13375;DHT22;6756;51.354;15.754;2023-06-14T17:48:46;19.20;1.00
13375;DHT22;6756;51.354;15.754;2023-06-14T17:52:47;19.20;1.00
13375;DHT22;6756;51.354;15.754;2023-06-14T17:56:48;19.20;1.00
13375;DHT22;6756;51.354;15.754;2023-06-14T18:00:50;19.10;1.00
13375;DHT22;6756;51.354;15.754;2023-06-14T18:04:52;19.20;1.00
13375;DHT22;6756;51.354;15.754;2023-06-14T18:08:55;19.50;1.00
13375;DHT22;6756;51.354;15.754;2023-06-14T18:12:56;19.60;1.00
13375;DHT22;6756;51.354;15.754;2023-06-14T18:16:57;19.50;1.00
13375;DHT22;6756;51.354;15.754;2023-06-14T18:20:59;19.40;1.00
13375;DHT22;6756;51.354;15.754;2023-06-14T18:25:03;19.20;1.00
13375;DHT22;6756;51.354;15.754;2023-06-14T18:29:08;19.10;1.00
13375;DHT22;6756;51.354;15.754;2023-06-14T18:33:08;18.90;1.00
13375;DHT22;6756;51.354;15.754;2023-06-14T18:37:10;18.80;1.00
13375;DHT22;6756;51.354;15.754;2023-06-14T18:41:14;18.60;1.00
13375;DHT22;6756;51.354;15.754;2023-06-14T18:45:18;18.40;1.00
13375;DHT22;6756;51.354;15.754;2023-06-14T18:49:19;18.30;1.00
13375;DHT22;6756;51.354;15.754;2023-06-14T18:53:20;18.20;1.00
13375;DHT22;6756;51.354;15.754;2023-06-14T18:57:22;18.10;1.00
13375;DHT22;6756;51.354;15.754;2023-06-14T19:01:23;18.00;1.00
13375;DHT22;6756;51.354;15.754;2023-06-14T19:05:24;17.90;1.00
13375;DHT22;6756;51.354;15.754;2023-06-14T19:09:25;17.80;1.00
13375;DHT22;6756;51.354;15.754;2023-06-14T19:13:26;17.70;1.00
13375;DHT22;6756;51.354;15.754;2023-06-14T19:17:29;17.50;1.00
13375;DHT22;6756;51.354;15.754;2023-06-14T19:21:30;17.30;1.00
13375;DHT22;6756;51.354;15.754;2023-06-14T19:25:31;17.20;1.00
13375;DHT22;6756;51.354;15.754;2023-06-14T19:29:35;17.00;1.00
13375;DHT22;6756;51.354;15.754;2023-06-14T19:33:36;16.70;1.00
13375;DHT22;6756;51.354;15.754;2023-06-14T19:37:37;16.40;1.00
13375;DHT22;6756;51.354;15.754;2023-06-14T19:41:38;16.20;1.00
13375;DHT22;6756;51.354;15.754;2023-06-14T19:45:40;16.00;1.00
13375;DHT22;6756;51.354;15.754;2023-06-14T19:49:47;15.80;1.00
13375;DHT22;6756;51.354;15.754;2023-06-14T19:53:48;15.60;1.00
13375;DHT22;6756;51.354;15.754;2023-06-14T19:57:49;15.40;1.00
13375;DHT22;6756;51.354;15.754;2023-06-14T20:01:50;15.20;1.00
13375;DHT22;6756;51.354;15.754;2023-06-14T20:05:51;15.10;1.00
13375;DHT22;6756;51.354;15.754;2023-06-14T20:09:53;15.00;1.00
13375;DHT22;6756;51.354;15.754;2023-06-14T20:13:55;14.80;1.00
13375;DHT22;6756;51.354;15.754;2023-06-14T20:17:56;14.70;1.00
13375;DHT22;6756;51.354;15.754;2023-06-14T20:21:57;14.50;1.00
13375;DHT22;6756;51.354;15.754;2023-06-14T20:25:58;14.40;1.00
13375;DHT22;6756;51.354;15.754;2023-06-14T20:30:01;14.20;1.00
13375;DHT22;6756;51.354;15.754;2023-06-14T20:34:03;14.00;3.80
13375;DHT22;6756;51.354;15.754;2023-06-14T20:38:05;13.90;15.80
13375;DHT22;6756;51.354;15.754;2023-06-14T20:42:07;13.80;27.30
13375;DHT22;6756;51.354;15.754;2023-06-14T20:46:12;13.90;50.50
13375;DHT22;6756;51.354;15.754;2023-06-14T20:50:15;13.90;59.40
13375;DHT22;6756;51.354;15.754;2023-06-14T20:54:16;13.80;69.70
13375;DHT22;6756;51.354;15.754;2023-06-14T20:58:17;13.70;79.80
13375;DHT22;6756;51.354;15.754;2023-06-14T21:02:18;13.60;90.30
13375;DHT22;6756;51.354;15.754;2023-06-14T21:06:23;13.50;94.70
13375;DHT22;6756;51.354;15.754;2023-06-14T21:10:25;13.40;99.90
13375;DHT22;6756;51.354;15.754;2023-06-14T21:14:29;13.30;99.90
13375;DHT22;6756;51.354;15.754;2023-06-14T21:18:33;13.20;99.90
13375;DHT22;6756;51.354;15.754;2023-06-14T21:22:36;13.20;99.90
13375;DHT22;6756;51.354;15.754;2023-06-14T21:26:36;13.10;99.90
13375;DHT22;6756;51.354;15.754;2023-06-14T21:30:38;13.10;99.90
13375;DHT22;6756;51.354;15.754;2023-06-14T21:34:38;13.20;99.90
13375;DHT22;6756;51.354;15.754;2023-06-14T21:38:41;13.20;99.90
13375;DHT22;6756;51.354;15.754;2023-06-14T21:42:42;13.20;99.90
13375;DHT22;6756;51.354;15.754;2023-06-14T21:46:42;13.20;99.90
13375;DHT22;6756;51.354;15.754;2023-06-14T21:50:43;13.20;99.90
13375;DHT22;6756;51.354;15.754;2023-06-14T21:54:44;13.20;99.90
13375;DHT22;6756;51.354;15.754;2023-06-14T21:58:45;13.20;99.90
13375;DHT22;6756;51.354;15.754;2023-06-14T22:02:46;13.10;99.90
13375;DHT22;6756;51.354;15.754;2023-06-14T22:06:47;13.10;99.90
13375;DHT22;6756;51.354;15.754;2023-06-14T22:10:48;13.10;99.90
13375;DHT22;6756;51.354;15.754;2023-06-14T22:14:49;13.00;99.90
13375;DHT22;6756;51.354;15.754;2023-06-14T22:18:51;12.90;99.90
13375;DHT22;6756;51.354;15.754;2023-06-14T22:22:52;12.80;99.90
13375;DHT22;6756;51.354;15.754;2023-06-14T22:26:53;12.80;99.90
13375;DHT22;6756;51.354;15.754;2023-06-14T22:30:57;12.70;99.90
13375;DHT22;6756;51.354;15.754;2023-06-14T22:34:58;12.70;99.90
13375;DHT22;6756;51.354;15.754;2023-06-14T22:39:11;12.70;99.90
13375;DHT22;6756;51.354;15.754;2023-06-14T22:43:12;12.70;99.90
13375;DHT22;6756;51.354;15.754;2023-06-14T22:47:13;12.60;99.90
13375;DHT22;6756;51.354;15.754;2023-06-14T22:51:21;12.50;99.90
13375;DHT22;6756;51.354;15.754;2023-06-14T22:55:22;12.50;99.90
13375;DHT22;6756;51.354;15.754;2023-06-14T22:59:27;12.40;1.00
13375;DHT22;6756;51.354;15.754;2023-06-14T23:03:31;12.40;1.00
13375;DHT22;6756;51.354;15.754;2023-06-14T23:07:32;12.30;1.00
13375;DHT22;6756;51.354;15.754;2023-06-14T23:11:34;12.30;1.00
13375;DHT22;6756;51.354;15.754;2023-06-14T23:15:35;12.20;1.00
13375;DHT22;6756;51.354;15.754;2023-06-14T23:19:37;12.10;1.00
13375;DHT22;6756;51.354;15.754;2023-06-14T23:23:38;12.00;1.00
13375;DHT22;6756;51.354;15.754;2023-06-14T23:27:40;12.00;1.00
13375;DHT22;6756;51.354;15.754;2023-06-14T23:31:41;12.00;1.00
13375;DHT22;6756;51.354;15.754;2023-06-14T23:35:42;12.00;1.00
13375;DHT22;6756;51.354;15.754;2023-06-14T23:39:43;12.00;1.00
13375;DHT22;6756;51.354;15.754;2023-06-14T23:43:49;12.00;1.00
13375;DHT22;6756;51.354;15.754;2023-06-14T23:47:51;11.90;1.00
13375;DHT22;6756;51.354;15.754;2023-06-14T23:51:52;11.90;1.00
13375;DHT22;6756;51.354;15.754;2023-06-14T23:55:57;11.80;1.00
